sensor_id;sensor_type;location;lat;lon;timestamp;P1;durP1;ratioP1;P2;durP2;ratioP2
5811;SDS011;2932;52.400;9.558;2023-05-10T00:00:26;4.95;;;2.00;;
5811;SDS011;2932;52.400;9.558;2023-05-10T00:02:51;4.10;;;1.80;;
5811;SDS011;2932;52.400;9.558;2023-05-10T00:05:17;3.38;;;1.70;;
5811;SDS011;2932;52.400;9.558;2023-05-10T00:07:43;3.15;;;1.70;;
5811;SDS011;2932;52.400;9.558;2023-05-10T00:10:09;2.97;;;1.85;;
5811;SDS011;2932;52.400;9.558;2023-05-10T00:12:35;4.03;;;1.88;;
5811;SDS011;2932;52.400;9.558;2023-05-10T00:15:01;3.60;;;2.08;;
5811;SDS011;2932;52.400;9.558;2023-05-10T00:17:27;4.53;;;2.53;;
5811;SDS011;2932;52.400;9.558;2023-05-10T00:19:53;3.53;;;1.77;;
5811;SDS011;2932;52.400;9.558;2023-05-10T00:22:19;3.55;;;1.92;;
5811;SDS011;2932;52.400;9.558;2023-05-10T00:24:45;4.63;;;1.60;;
5811;SDS011;2932;52.400;9.558;2023-05-10T00:27:10;3.90;;;2.03;;
5811;SDS011;2932;52.400;9.558;2023-05-10T00:29:35;4.65;;;1.70;;
5811;SDS011;2932;52.400;9.558;2023-05-10T00:32:00;4.20;;;2.00;;
5811;SDS011;2932;52.400;9.558;2023-05-10T00:34:26;3.55;;;1.98;;
5811;SDS011;2932;52.400;9.558;2023-05-10T00:36:52;3.72;;;1.92;;
5811;SDS011;2932;52.400;9.558;2023-05-10T00:39:17;3.90;;;2.00;;
5811;SDS011;2932;52.400;9.558;2023-05-10T00:41:42;4.60;;;2.17;;
5811;SDS011;2932;52.400;9.558;2023-05-10T00:44:08;4.40;;;2.20;;
5811;SDS011;2932;52.400;9.558;2023-05-10T00:46:33;3.15;;;2.05;;
5811;SDS011;2932;52.400;9.558;2023-05-10T00:48:59;4.15;;;2.13;;
5811;SDS011;2932;52.400;9.558;2023-05-10T00:51:24;2.63;;;1.80;;
5811;SDS011;2932;52.400;9.558;2023-05-10T00:53:50;5.50;;;2.22;;
5811;SDS011;2932;52.400;9.558;2023-05-10T00:56:16;5.45;;;2.20;;
5811;SDS011;2932;52.400;9.558;2023-05-10T00:58:42;2.78;;;1.88;;
5811;SDS011;2932;52.400;9.558;2023-05-10T01:01:07;3.70;;;2.20;;
5811;SDS011;2932;52.400;9.558;2023-05-10T01:03:35;4.57;;;2.60;;
5811;SDS011;2932;52.400;9.558;2023-05-10T01:06:01;2.03;;;1.77;;
5811;SDS011;2932;52.400;9.558;2023-05-10T01:08:28;3.72;;;2.20;;
5811;SDS011;2932;52.400;9.558;2023-05-10T01:10:53;2.30;;;2.10;;
5811;SDS011;2932;52.400;9.558;2023-05-10T01:15:51;3.17;;;2.20;;
5811;SDS011;2932;52.400;9.558;2023-05-10T01:18:16;3.03;;;2.10;;
5811;SDS011;2932;52.400;9.558;2023-05-10T01:20:46;3.70;;;2.70;;
5811;SDS011;2932;52.400;9.558;2023-05-10T01:34:35;2.38;;;2.17;;
5811;SDS011;2932;52.400;9.558;2023-05-10T01:37:07;6.25;;;2.47;;
5811;SDS011;2932;52.400;9.558;2023-05-10T01:39:44;5.07;;;2.25;;
5811;SDS011;2932;52.400;9.558;2023-05-10T01:42:20;6.88;;;2.38;;
5811;SDS011;2932;52.400;9.558;2023-05-10T01:47:44;15.10;;;7.97;;
5811;SDS011;2932;52.400;9.558;2023-05-10T01:50:16;8.70;;;5.63;;
5811;SDS011;2932;52.400;9.558;2023-05-10T01:52:46;6.43;;;3.35;;
5811;SDS011;2932;52.400;9.558;2023-05-10T01:55:15;7.28;;;2.10;;
5811;SDS011;2932;52.400;9.558;2023-05-10T01:57:43;4.20;;;2.22;;
5811;SDS011;2932;52.400;9.558;2023-05-10T02:00:11;2.53;;;2.00;;
5811;SDS011;2932;52.400;9.558;2023-05-10T02:02:39;2.93;;;2.13;;
5811;SDS011;2932;52.400;9.558;2023-05-10T02:05:07;3.17;;;2.25;;
5811;SDS011;2932;52.400;9.558;2023-05-10T02:07:35;3.63;;;2.17;;
5811;SDS011;2932;52.400;9.558;2023-05-10T02:10:02;3.88;;;2.35;;
5811;SDS011;2932;52.400;9.558;2023-05-10T02:12:29;3.22;;;2.40;;
5811;SDS011;2932;52.400;9.558;2023-05-10T02:14:59;3.50;;;2.23;;
5811;SDS011;2932;52.400;9.558;2023-05-10T02:17:27;6.80;;;2.40;;
5811;SDS011;2932;52.400;9.558;2023-05-10T02:19:54;4.30;;;2.42;;
5811;SDS011;2932;52.400;9.558;2023-05-10T02:22:21;2.90;;;2.35;;
5811;SDS011;2932;52.400;9.558;2023-05-10T02:24:48;3.38;;;2.50;;
5811;SDS011;2932;52.400;9.558;2023-05-10T02:27:15;8.13;;;2.87;;
5811;SDS011;2932;52.400;9.558;2023-05-10T02:29:42;2.60;;;2.30;;
5811;SDS011;2932;52.400;9.558;2023-05-10T02:32:08;5.00;;;2.63;;
5811;SDS011;2932;52.400;9.558;2023-05-10T02:34:35;3.55;;;2.47;;
5811;SDS011;2932;52.400;9.558;2023-05-10T02:37:01;6.53;;;2.87;;
5811;SDS011;2932;52.400;9.558;2023-05-10T02:39:27;2.97;;;2.67;;
5811;SDS011;2932;52.400;9.558;2023-05-10T02:41:55;4.82;;;2.83;;
5811;SDS011;2932;52.400;9.558;2023-05-10T02:44:22;2.90;;;2.47;;
5811;SDS011;2932;52.400;9.558;2023-05-10T02:46:48;2.75;;;2.33;;
5811;SDS011;2932;52.400;9.558;2023-05-10T02:49:14;5.07;;;2.67;;
5811;SDS011;2932;52.400;9.558;2023-05-10T02:51:41;4.50;;;2.67;;
5811;SDS011;2932;52.400;9.558;2023-05-10T02:54:14;4.28;;;2.80;;
5811;SDS011;2932;52.400;9.558;2023-05-10T02:56:46;3.80;;;2.90;;
5811;SDS011;2932;52.400;9.558;2023-05-10T02:59:15;3.73;;;2.77;;
5811;SDS011;2932;52.400;9.558;2023-05-10T03:01:40;4.00;;;3.07;;
5811;SDS011;2932;52.400;9.558;2023-05-10T03:04:06;3.30;;;2.50;;
5811;SDS011;2932;52.400;9.558;2023-05-10T03:06:31;7.65;;;2.70;;
5811;SDS011;2932;52.400;9.558;2023-05-10T03:08:56;3.15;;;2.85;;
5811;SDS011;2932;52.400;9.558;2023-05-10T03:22:08;3.50;;;2.78;;
5811;SDS011;2932;52.400;9.558;2023-05-10T03:24:35;4.33;;;3.00;;
5811;SDS011;2932;52.400;9.558;2023-05-10T03:27:03;5.60;;;3.20;;
5811;SDS011;2932;52.400;9.558;2023-05-10T03:29:29;3.40;;;2.67;;
5811;SDS011;2932;52.400;9.558;2023-05-10T03:32:00;3.70;;;2.60;;
5811;SDS011;2932;52.400;9.558;2023-05-10T03:34:25;5.70;;;2.83;;
5811;SDS011;2932;52.400;9.558;2023-05-10T03:36:51;7.97;;;3.03;;
5811;SDS011;2932;52.400;9.558;2023-05-10T03:39:17;4.70;;;2.78;;
5811;SDS011;2932;52.400;9.558;2023-05-10T03:41:42;3.47;;;3.10;;
5811;SDS011;2932;52.400;9.558;2023-05-10T03:44:07;4.20;;;2.90;;
5811;SDS011;2932;52.400;9.558;2023-05-10T03:46:33;4.28;;;2.95;;
5811;SDS011;2932;52.400;9.558;2023-05-10T03:48:58;5.05;;;2.85;;
5811;SDS011;2932;52.400;9.558;2023-05-10T03:51:24;4.32;;;3.10;;
5811;SDS011;2932;52.400;9.558;2023-05-10T03:53:52;4.70;;;3.17;;
5811;SDS011;2932;52.400;9.558;2023-05-10T03:56:20;6.57;;;2.95;;
5811;SDS011;2932;52.400;9.558;2023-05-10T03:58:46;3.58;;;2.90;;
5811;SDS011;2932;52.400;9.558;2023-05-10T04:01:11;3.78;;;2.78;;
5811;SDS011;2932;52.400;9.558;2023-05-10T04:03:37;5.88;;;3.40;;
5811;SDS011;2932;52.400;9.558;2023-05-10T04:06:03;3.35;;;2.67;;
5811;SDS011;2932;52.400;9.558;2023-05-10T04:08:29;6.37;;;3.27;;
5811;SDS011;2932;52.400;9.558;2023-05-10T04:10:54;4.95;;;3.00;;
5811;SDS011;2932;52.400;9.558;2023-05-10T04:13:20;5.87;;;3.10;;
5811;SDS011;2932;52.400;9.558;2023-05-10T04:15:45;5.67;;;3.50;;
5811;SDS011;2932;52.400;9.558;2023-05-10T04:18:10;5.47;;;3.00;;
5811;SDS011;2932;52.400;9.558;2023-05-10T04:20:36;6.13;;;3.47;;
5811;SDS011;2932;52.400;9.558;2023-05-10T04:23:01;6.03;;;3.17;;
5811;SDS011;2932;52.400;9.558;2023-05-10T04:25:27;6.07;;;3.43;;
5811;SDS011;2932;52.400;9.558;2023-05-10T04:27:52;6.87;;;3.83;;
5811;SDS011;2932;52.400;9.558;2023-05-10T04:30:17;4.37;;;3.40;;
5811;SDS011;2932;52.400;9.558;2023-05-10T04:32:43;4.22;;;3.35;;
5811;SDS011;2932;52.400;9.558;2023-05-10T04:35:08;4.73;;;3.40;;
5811;SDS011;2932;52.400;9.558;2023-05-10T04:37:35;4.23;;;3.30;;
5811;SDS011;2932;52.400;9.558;2023-05-10T04:40:01;5.45;;;3.58;;
5811;SDS011;2932;52.400;9.558;2023-05-10T04:42:28;3.20;;;2.93;;
5811;SDS011;2932;52.400;9.558;2023-05-10T04:44:53;4.93;;;3.73;;
5811;SDS011;2932;52.400;9.558;2023-05-10T04:47:19;4.72;;;3.42;;
5811;SDS011;2932;52.400;9.558;2023-05-10T04:49:45;4.35;;;3.40;;
5811;SDS011;2932;52.400;9.558;2023-05-10T04:52:10;4.63;;;3.83;;
5811;SDS011;2932;52.400;9.558;2023-05-10T04:54:36;5.03;;;3.37;;
5811;SDS011;2932;52.400;9.558;2023-05-10T04:57:01;5.07;;;3.50;;
5811;SDS011;2932;52.400;9.558;2023-05-10T04:59:27;4.83;;;4.27;;
5811;SDS011;2932;52.400;9.558;2023-05-10T05:01:52;6.60;;;3.70;;
5811;SDS011;2932;52.400;9.558;2023-05-10T05:04:17;9.33;;;3.93;;
5811;SDS011;2932;52.400;9.558;2023-05-10T05:06:43;4.90;;;4.13;;
5811;SDS011;2932;52.400;9.558;2023-05-10T05:09:08;5.50;;;3.33;;
5811;SDS011;2932;52.400;9.558;2023-05-10T05:11:35;6.07;;;3.93;;
5811;SDS011;2932;52.400;9.558;2023-05-10T05:14:00;5.20;;;3.90;;
5811;SDS011;2932;52.400;9.558;2023-05-10T05:16:25;5.80;;;3.80;;
5811;SDS011;2932;52.400;9.558;2023-05-10T05:18:51;5.27;;;3.87;;
5811;SDS011;2932;52.400;9.558;2023-05-10T05:21:17;6.07;;;4.27;;
5811;SDS011;2932;52.400;9.558;2023-05-10T05:23:43;7.40;;;4.43;;
5811;SDS011;2932;52.400;9.558;2023-05-10T05:26:09;6.47;;;4.40;;
5811;SDS011;2932;52.400;9.558;2023-05-10T05:28:35;6.43;;;4.07;;
5811;SDS011;2932;52.400;9.558;2023-05-10T05:31:02;7.77;;;5.80;;
5811;SDS011;2932;52.400;9.558;2023-05-10T05:33:28;5.17;;;3.90;;
5811;SDS011;2932;52.400;9.558;2023-05-10T05:35:54;4.53;;;3.97;;
5811;SDS011;2932;52.400;9.558;2023-05-10T05:38:19;7.60;;;4.13;;
5811;SDS011;2932;52.400;9.558;2023-05-10T05:40:45;8.53;;;4.90;;
5811;SDS011;2932;52.400;9.558;2023-05-10T05:43:10;6.70;;;4.20;;
5811;SDS011;2932;52.400;9.558;2023-05-10T05:45:36;7.23;;;4.20;;
5811;SDS011;2932;52.400;9.558;2023-05-10T05:48:01;5.93;;;5.33;;
5811;SDS011;2932;52.400;9.558;2023-05-10T05:50:26;6.23;;;5.63;;
5811;SDS011;2932;52.400;9.558;2023-05-10T05:52:52;7.40;;;4.63;;
5811;SDS011;2932;52.400;9.558;2023-05-10T05:55:17;6.80;;;5.93;;
5811;SDS011;2932;52.400;9.558;2023-05-10T05:57:42;5.80;;;5.17;;
5811;SDS011;2932;52.400;9.558;2023-05-10T06:00:08;6.27;;;4.17;;
5811;SDS011;2932;52.400;9.558;2023-05-10T06:02:34;4.80;;;4.30;;
5811;SDS011;2932;52.400;9.558;2023-05-10T06:04:59;6.67;;;4.53;;
5811;SDS011;2932;52.400;9.558;2023-05-10T06:07:24;6.27;;;5.07;;
5811;SDS011;2932;52.400;9.558;2023-05-10T06:09:50;8.03;;;4.70;;
5811;SDS011;2932;52.400;9.558;2023-05-10T06:12:15;4.90;;;4.40;;
5811;SDS011;2932;52.400;9.558;2023-05-10T06:14:40;6.23;;;4.90;;
5811;SDS011;2932;52.400;9.558;2023-05-10T06:17:06;6.80;;;4.47;;
5811;SDS011;2932;52.400;9.558;2023-05-10T06:19:31;6.17;;;4.90;;
5811;SDS011;2932;52.400;9.558;2023-05-10T06:21:57;7.23;;;4.87;;
5811;SDS011;2932;52.400;9.558;2023-05-10T06:24:22;6.57;;;4.88;;
5811;SDS011;2932;52.400;9.558;2023-05-10T06:26:47;6.37;;;5.20;;
5811;SDS011;2932;52.400;9.558;2023-05-10T06:29:14;6.70;;;4.60;;
5811;SDS011;2932;52.400;9.558;2023-05-10T06:31:40;7.37;;;5.63;;
5811;SDS011;2932;52.400;9.558;2023-05-10T06:34:05;8.50;;;5.80;;
5811;SDS011;2932;52.400;9.558;2023-05-10T06:36:32;12.03;;;8.97;;
5811;SDS011;2932;52.400;9.558;2023-05-10T06:38:58;6.43;;;4.50;;
5811;SDS011;2932;52.400;9.558;2023-05-10T06:41:23;7.30;;;4.83;;
5811;SDS011;2932;52.400;9.558;2023-05-10T06:43:49;6.97;;;4.70;;
5811;SDS011;2932;52.400;9.558;2023-05-10T06:46:14;5.77;;;5.13;;
5811;SDS011;2932;52.400;9.558;2023-05-10T06:48:39;8.52;;;4.75;;
5811;SDS011;2932;52.400;9.558;2023-05-10T06:51:05;7.18;;;4.85;;
5811;SDS011;2932;52.400;9.558;2023-05-10T06:53:30;7.50;;;5.03;;
5811;SDS011;2932;52.400;9.558;2023-05-10T06:55:55;7.20;;;5.27;;
5811;SDS011;2932;52.400;9.558;2023-05-10T06:58:21;8.50;;;5.53;;
5811;SDS011;2932;52.400;9.558;2023-05-10T07:00:46;6.43;;;5.73;;
5811;SDS011;2932;52.400;9.558;2023-05-10T07:03:12;8.60;;;5.47;;
5811;SDS011;2932;52.400;9.558;2023-05-10T07:05:37;6.32;;;4.88;;
5811;SDS011;2932;52.400;9.558;2023-05-10T07:08:03;6.10;;;4.57;;
5811;SDS011;2932;52.400;9.558;2023-05-10T07:10:28;5.97;;;5.03;;
5811;SDS011;2932;52.400;9.558;2023-05-10T07:12:54;8.63;;;5.87;;
5811;SDS011;2932;52.400;9.558;2023-05-10T07:15:20;7.20;;;6.50;;
5811;SDS011;2932;52.400;9.558;2023-05-10T07:17:45;8.30;;;5.40;;
5811;SDS011;2932;52.400;9.558;2023-05-10T07:20:11;5.47;;;4.97;;
5811;SDS011;2932;52.400;9.558;2023-05-10T07:22:37;6.57;;;4.87;;
5811;SDS011;2932;52.400;9.558;2023-05-10T07:25:02;5.20;;;4.70;;
5811;SDS011;2932;52.400;9.558;2023-05-10T07:27:28;6.70;;;4.93;;
5811;SDS011;2932;52.400;9.558;2023-05-10T07:29:53;8.02;;;4.28;;
5811;SDS011;2932;52.400;9.558;2023-05-10T07:32:19;5.97;;;4.50;;
5811;SDS011;2932;52.400;9.558;2023-05-10T07:34:45;5.47;;;4.10;;
5811;SDS011;2932;52.400;9.558;2023-05-10T07:37:10;4.38;;;3.80;;
5811;SDS011;2932;52.400;9.558;2023-05-10T07:39:36;5.23;;;3.73;;
5811;SDS011;2932;52.400;9.558;2023-05-10T07:42:02;4.67;;;3.33;;
5811;SDS011;2932;52.400;9.558;2023-05-10T07:44:27;4.73;;;3.60;;
5811;SDS011;2932;52.400;9.558;2023-05-10T07:46:53;4.10;;;3.40;;
5811;SDS011;2932;52.400;9.558;2023-05-10T07:49:21;3.43;;;2.93;;
5811;SDS011;2932;52.400;9.558;2023-05-10T07:51:49;2.83;;;2.30;;
5811;SDS011;2932;52.400;9.558;2023-05-10T07:54:14;2.60;;;2.40;;
5811;SDS011;2932;52.400;9.558;2023-05-10T07:56:40;2.10;;;1.90;;
5811;SDS011;2932;52.400;9.558;2023-05-10T07:59:10;2.03;;;1.90;;
5811;SDS011;2932;52.400;9.558;2023-05-10T08:01:40;6.47;;;1.50;;
5811;SDS011;2932;52.400;9.558;2023-05-10T08:04:05;1.60;;;1.50;;
5811;SDS011;2932;52.400;9.558;2023-05-10T08:06:30;3.20;;;1.70;;
5811;SDS011;2932;52.400;9.558;2023-05-10T08:08:56;1.50;;;1.40;;
5811;SDS011;2932;52.400;9.558;2023-05-10T08:11:21;1.73;;;1.63;;
5811;SDS011;2932;52.400;9.558;2023-05-10T08:13:47;1.60;;;1.50;;
5811;SDS011;2932;52.400;9.558;2023-05-10T08:16:13;1.50;;;1.40;;
5811;SDS011;2932;52.400;9.558;2023-05-10T08:18:39;2.00;;;1.90;;
5811;SDS011;2932;52.400;9.558;2023-05-10T08:21:05;1.77;;;1.67;;
5811;SDS011;2932;52.400;9.558;2023-05-10T08:23:31;1.60;;;1.50;;
5811;SDS011;2932;52.400;9.558;2023-05-10T08:25:56;1.70;;;1.60;;
5811;SDS011;2932;52.400;9.558;2023-05-10T08:28:22;1.70;;;1.60;;
5811;SDS011;2932;52.400;9.558;2023-05-10T08:30:47;2.60;;;1.90;;
5811;SDS011;2932;52.400;9.558;2023-05-10T08:33:13;1.90;;;1.80;;
5811;SDS011;2932;52.400;9.558;2023-05-10T08:35:38;2.00;;;1.90;;
5811;SDS011;2932;52.400;9.558;2023-05-10T08:38:03;1.90;;;1.80;;
5811;SDS011;2932;52.400;9.558;2023-05-10T08:40:29;2.50;;;2.23;;
5811;SDS011;2932;52.400;9.558;2023-05-10T08:42:55;2.20;;;2.00;;
5811;SDS011;2932;52.400;9.558;2023-05-10T08:45:27;2.30;;;2.10;;
5811;SDS011;2932;52.400;9.558;2023-05-10T08:47:56;2.63;;;2.33;;
5811;SDS011;2932;52.400;9.558;2023-05-10T08:50:23;2.90;;;2.70;;
5811;SDS011;2932;52.400;9.558;2023-05-10T08:52:50;2.63;;;2.33;;
5811;SDS011;2932;52.400;9.558;2023-05-10T08:55:17;3.60;;;2.90;;
5811;SDS011;2932;52.400;9.558;2023-05-10T08:57:43;3.20;;;2.70;;
5811;SDS011;2932;52.400;9.558;2023-05-10T09:00:08;4.60;;;2.60;;
5811;SDS011;2932;52.400;9.558;2023-05-10T09:02:35;2.40;;;2.20;;
5811;SDS011;2932;52.400;9.558;2023-05-10T09:05:02;3.30;;;2.67;;
5811;SDS011;2932;52.400;9.558;2023-05-10T09:07:29;2.80;;;2.57;;
5811;SDS011;2932;52.400;9.558;2023-05-10T09:09:55;4.17;;;3.17;;
5811;SDS011;2932;52.400;9.558;2023-05-10T09:12:21;3.37;;;3.07;;
5811;SDS011;2932;52.400;9.558;2023-05-10T09:14:47;3.10;;;2.90;;
5811;SDS011;2932;52.400;9.558;2023-05-10T09:17:15;3.07;;;2.87;;
5811;SDS011;2932;52.400;9.558;2023-05-10T09:19:40;2.70;;;2.50;;
5811;SDS011;2932;52.400;9.558;2023-05-10T09:22:06;2.57;;;2.37;;
5811;SDS011;2932;52.400;9.558;2023-05-10T09:24:31;2.97;;;2.47;;
5811;SDS011;2932;52.400;9.558;2023-05-10T09:26:57;3.80;;;2.63;;
5811;SDS011;2932;52.400;9.558;2023-05-10T09:29:24;3.00;;;2.70;;
5811;SDS011;2932;52.400;9.558;2023-05-10T09:31:50;3.07;;;2.77;;
5811;SDS011;2932;52.400;9.558;2023-05-10T09:34:17;3.20;;;2.90;;
5811;SDS011;2932;52.400;9.558;2023-05-10T09:36:54;4.33;;;3.23;;
5811;SDS011;2932;52.400;9.558;2023-05-10T09:41:57;2.97;;;2.77;;
5811;SDS011;2932;52.400;9.558;2023-05-10T09:44:24;3.43;;;2.80;;
5811;SDS011;2932;52.400;9.558;2023-05-10T09:46:50;2.80;;;2.60;;
5811;SDS011;2932;52.400;9.558;2023-05-10T09:49:17;2.73;;;2.53;;
5811;SDS011;2932;52.400;9.558;2023-05-10T09:51:43;3.30;;;3.00;;
5811;SDS011;2932;52.400;9.558;2023-05-10T09:56:39;2.97;;;2.70;;
5811;SDS011;2932;52.400;9.558;2023-05-10T09:59:05;3.53;;;3.13;;
5811;SDS011;2932;52.400;9.558;2023-05-10T10:01:32;4.07;;;3.57;;
5811;SDS011;2932;52.400;9.558;2023-05-10T10:03:58;3.50;;;3.20;;
5811;SDS011;2932;52.400;9.558;2023-05-10T10:06:24;3.95;;;3.50;;
5811;SDS011;2932;52.400;9.558;2023-05-10T10:08:50;3.95;;;3.30;;
5811;SDS011;2932;52.400;9.558;2023-05-10T10:11:16;3.80;;;3.20;;
5811;SDS011;2932;52.400;9.558;2023-05-10T10:13:41;4.23;;;3.40;;
5811;SDS011;2932;52.400;9.558;2023-05-10T10:16:08;3.10;;;2.90;;
5811;SDS011;2932;52.400;9.558;2023-05-10T10:18:33;5.50;;;3.15;;
5811;SDS011;2932;52.400;9.558;2023-05-10T10:21:03;3.63;;;3.33;;
5811;SDS011;2932;52.400;9.558;2023-05-10T10:23:30;5.00;;;3.42;;
5811;SDS011;2932;52.400;9.558;2023-05-10T10:25:56;3.80;;;3.20;;
5811;SDS011;2932;52.400;9.558;2023-05-10T10:28:26;4.63;;;3.35;;
5811;SDS011;2932;52.400;9.558;2023-05-10T10:34:10;4.57;;;2.78;;
5811;SDS011;2932;52.400;9.558;2023-05-10T10:36:45;4.75;;;3.08;;
5811;SDS011;2932;52.400;9.558;2023-05-10T10:39:12;3.58;;;2.75;;
5811;SDS011;2932;52.400;9.558;2023-05-10T10:41:39;3.25;;;2.85;;
5811;SDS011;2932;52.400;9.558;2023-05-10T10:49:30;4.38;;;3.17;;
5811;SDS011;2932;52.400;9.558;2023-05-10T10:52:31;5.75;;;3.30;;
5811;SDS011;2932;52.400;9.558;2023-05-10T10:57:46;4.00;;;3.60;;
5811;SDS011;2932;52.400;9.558;2023-05-10T11:07:59;5.05;;;4.13;;
5811;SDS011;2932;52.400;9.558;2023-05-10T11:10:25;5.07;;;3.17;;
5811;SDS011;2932;52.400;9.558;2023-05-10T11:15:36;4.32;;;3.80;;
5811;SDS011;2932;52.400;9.558;2023-05-10T11:18:19;5.90;;;3.95;;
5811;SDS011;2932;52.400;9.558;2023-05-10T11:20:51;4.93;;;3.72;;
5811;SDS011;2932;52.400;9.558;2023-05-10T11:23:21;5.75;;;3.55;;
5811;SDS011;2932;52.400;9.558;2023-05-10T11:25:47;5.20;;;3.55;;
5811;SDS011;2932;52.400;9.558;2023-05-10T11:28:16;4.47;;;3.40;;
5811;SDS011;2932;52.400;9.558;2023-05-10T11:30:43;5.00;;;3.67;;
5811;SDS011;2932;52.400;9.558;2023-05-10T11:33:09;4.95;;;3.33;;
5811;SDS011;2932;52.400;9.558;2023-05-10T11:35:40;6.70;;;3.60;;
5811;SDS011;2932;52.400;9.558;2023-05-10T11:38:06;4.85;;;3.00;;
5811;SDS011;2932;52.400;9.558;2023-05-10T11:40:36;5.43;;;3.17;;
5811;SDS011;2932;52.400;9.558;2023-05-10T11:43:02;4.07;;;3.08;;
5811;SDS011;2932;52.400;9.558;2023-05-10T11:45:29;4.70;;;3.42;;
5811;SDS011;2932;52.400;9.558;2023-05-10T11:47:58;3.53;;;3.22;;
5811;SDS011;2932;52.400;9.558;2023-05-10T11:50:24;5.55;;;3.50;;
5811;SDS011;2932;52.400;9.558;2023-05-10T11:52:54;5.97;;;3.85;;
5811;SDS011;2932;52.400;9.558;2023-05-10T11:55:21;5.13;;;4.30;;
5811;SDS011;2932;52.400;9.558;2023-05-10T11:57:46;6.95;;;4.40;;
5811;SDS011;2932;52.400;9.558;2023-05-10T12:00:13;6.53;;;5.03;;
5811;SDS011;2932;52.400;9.558;2023-05-10T12:02:39;4.60;;;3.85;;
5811;SDS011;2932;52.400;9.558;2023-05-10T12:05:04;5.05;;;4.05;;
5811;SDS011;2932;52.400;9.558;2023-05-10T12:07:31;4.80;;;4.30;;
5811;SDS011;2932;52.400;9.558;2023-05-10T12:12:39;6.68;;;4.22;;
5811;SDS011;2932;52.400;9.558;2023-05-10T12:15:12;6.82;;;4.93;;
5811;SDS011;2932;52.400;9.558;2023-05-10T12:17:43;6.47;;;5.22;;
5811;SDS011;2932;52.400;9.558;2023-05-10T12:20:13;6.63;;;4.60;;
5811;SDS011;2932;52.400;9.558;2023-05-10T12:22:55;5.97;;;4.18;;
5811;SDS011;2932;52.400;9.558;2023-05-10T12:25:22;5.75;;;4.45;;
5811;SDS011;2932;52.400;9.558;2023-05-10T12:27:52;8.02;;;4.78;;
5811;SDS011;2932;52.400;9.558;2023-05-10T12:30:23;7.82;;;4.80;;
5811;SDS011;2932;52.400;9.558;2023-05-10T12:32:50;6.07;;;4.47;;
5811;SDS011;2932;52.400;9.558;2023-05-10T12:35:17;5.15;;;4.47;;
5811;SDS011;2932;52.400;9.558;2023-05-10T12:37:45;5.40;;;4.18;;
5811;SDS011;2932;52.400;9.558;2023-05-10T12:40:11;5.50;;;4.03;;
5811;SDS011;2932;52.400;9.558;2023-05-10T12:42:37;8.05;;;4.40;;
5811;SDS011;2932;52.400;9.558;2023-05-10T12:45:07;7.18;;;4.15;;
5811;SDS011;2932;52.400;9.558;2023-05-10T12:47:33;5.97;;;4.60;;
5811;SDS011;2932;52.400;9.558;2023-05-10T12:49:59;5.70;;;4.32;;
5811;SDS011;2932;52.400;9.558;2023-05-10T12:52:26;8.95;;;4.70;;
5811;SDS011;2932;52.400;9.558;2023-05-10T12:54:52;5.80;;;4.28;;
5811;SDS011;2932;52.400;9.558;2023-05-10T12:57:18;7.88;;;4.43;;
5811;SDS011;2932;52.400;9.558;2023-05-10T12:59:43;9.05;;;4.22;;
5811;SDS011;2932;52.400;9.558;2023-05-10T13:02:09;6.00;;;3.97;;
5811;SDS011;2932;52.400;9.558;2023-05-10T13:04:35;5.72;;;4.70;;
5811;SDS011;2932;52.400;9.558;2023-05-10T13:07:04;5.82;;;4.20;;
5811;SDS011;2932;52.400;9.558;2023-05-10T13:09:29;6.65;;;4.35;;
5811;SDS011;2932;52.400;9.558;2023-05-10T13:11:55;5.07;;;4.05;;
5811;SDS011;2932;52.400;9.558;2023-05-10T13:14:20;6.38;;;4.45;;
5811;SDS011;2932;52.400;9.558;2023-05-10T13:16:46;6.28;;;3.88;;
5811;SDS011;2932;52.400;9.558;2023-05-10T13:19:12;4.82;;;4.10;;
5811;SDS011;2932;52.400;9.558;2023-05-10T13:21:38;4.78;;;4.00;;
5811;SDS011;2932;52.400;9.558;2023-05-10T13:24:03;5.75;;;4.53;;
5811;SDS011;2932;52.400;9.558;2023-05-10T13:26:29;6.78;;;4.13;;
5811;SDS011;2932;52.400;9.558;2023-05-10T13:28:54;7.10;;;3.97;;
5811;SDS011;2932;52.400;9.558;2023-05-10T13:31:20;5.47;;;4.05;;
5811;SDS011;2932;52.400;9.558;2023-05-10T13:33:46;7.35;;;4.75;;
5811;SDS011;2932;52.400;9.558;2023-05-10T13:36:11;6.22;;;4.60;;
5811;SDS011;2932;52.400;9.558;2023-05-10T13:38:36;6.63;;;4.28;;
5811;SDS011;2932;52.400;9.558;2023-05-10T13:41:02;6.72;;;5.78;;
5811;SDS011;2932;52.400;9.558;2023-05-10T13:43:28;7.30;;;4.82;;
5811;SDS011;2932;52.400;9.558;2023-05-10T13:45:54;5.45;;;4.72;;
5811;SDS011;2932;52.400;9.558;2023-05-10T13:48:19;5.50;;;4.30;;
5811;SDS011;2932;52.400;9.558;2023-05-10T13:50:45;5.97;;;4.50;;
5811;SDS011;2932;52.400;9.558;2023-05-10T13:53:11;7.40;;;4.72;;
5811;SDS011;2932;52.400;9.558;2023-05-10T13:55:36;7.00;;;4.70;;
5811;SDS011;2932;52.400;9.558;2023-05-10T13:58:01;7.97;;;5.85;;
5811;SDS011;2932;52.400;9.558;2023-05-10T14:00:27;7.30;;;5.53;;
5811;SDS011;2932;52.400;9.558;2023-05-10T14:02:53;7.15;;;5.45;;
5811;SDS011;2932;52.400;9.558;2023-05-10T14:05:18;10.18;;;5.72;;
5811;SDS011;2932;52.400;9.558;2023-05-10T14:07:44;8.02;;;5.32;;
5811;SDS011;2932;52.400;9.558;2023-05-10T14:10:09;7.28;;;5.50;;
5811;SDS011;2932;52.400;9.558;2023-05-10T14:12:35;8.48;;;5.47;;
5811;SDS011;2932;52.400;9.558;2023-05-10T14:15:00;8.30;;;5.68;;
5811;SDS011;2932;52.400;9.558;2023-05-10T14:17:26;7.50;;;5.45;;
5811;SDS011;2932;52.400;9.558;2023-05-10T14:19:52;6.85;;;6.00;;
5811;SDS011;2932;52.400;9.558;2023-05-10T14:22:17;10.65;;;5.90;;
5811;SDS011;2932;52.400;9.558;2023-05-10T14:24:43;9.43;;;6.97;;
5811;SDS011;2932;52.400;9.558;2023-05-10T14:27:11;8.23;;;6.40;;
5811;SDS011;2932;52.400;9.558;2023-05-10T14:29:38;10.00;;;7.28;;
5811;SDS011;2932;52.400;9.558;2023-05-10T14:32:03;10.13;;;7.22;;
5811;SDS011;2932;52.400;9.558;2023-05-10T14:34:29;8.07;;;6.65;;
5811;SDS011;2932;52.400;9.558;2023-05-10T14:36:54;11.25;;;7.60;;
5811;SDS011;2932;52.400;9.558;2023-05-10T14:39:20;10.63;;;7.63;;
5811;SDS011;2932;52.400;9.558;2023-05-10T14:41:45;8.73;;;6.63;;
5811;SDS011;2932;52.400;9.558;2023-05-10T14:44:12;9.48;;;7.40;;
5811;SDS011;2932;52.400;9.558;2023-05-10T14:46:37;9.63;;;6.93;;
5811;SDS011;2932;52.400;9.558;2023-05-10T14:49:03;11.43;;;8.93;;
5811;SDS011;2932;52.400;9.558;2023-05-10T14:51:29;11.90;;;8.15;;
5811;SDS011;2932;52.400;9.558;2023-05-10T14:53:54;9.27;;;7.07;;
5811;SDS011;2932;52.400;9.558;2023-05-10T14:56:20;8.73;;;6.20;;
5811;SDS011;2932;52.400;9.558;2023-05-10T14:58:46;9.52;;;6.95;;
5811;SDS011;2932;52.400;9.558;2023-05-10T15:01:11;9.80;;;6.65;;
5811;SDS011;2932;52.400;9.558;2023-05-10T15:03:36;8.63;;;6.68;;
5811;SDS011;2932;52.400;9.558;2023-05-10T15:06:02;7.35;;;5.40;;
5811;SDS011;2932;52.400;9.558;2023-05-10T15:08:27;8.07;;;5.20;;
5811;SDS011;2932;52.400;9.558;2023-05-10T15:10:52;9.32;;;5.35;;
5811;SDS011;2932;52.400;9.558;2023-05-10T15:13:20;6.85;;;4.90;;
5811;SDS011;2932;52.400;9.558;2023-05-10T15:15:45;6.78;;;5.00;;
5811;SDS011;2932;52.400;9.558;2023-05-10T15:18:11;7.35;;;4.85;;
5811;SDS011;2932;52.400;9.558;2023-05-10T15:20:36;6.82;;;4.72;;
5811;SDS011;2932;52.400;9.558;2023-05-10T15:23:02;7.78;;;4.68;;
5811;SDS011;2932;52.400;9.558;2023-05-10T15:25:27;7.80;;;4.20;;
5811;SDS011;2932;52.400;9.558;2023-05-10T15:27:53;5.40;;;4.38;;
5811;SDS011;2932;52.400;9.558;2023-05-10T15:30:19;6.75;;;4.50;;
5811;SDS011;2932;52.400;9.558;2023-05-10T15:32:44;7.82;;;4.28;;
5811;SDS011;2932;52.400;9.558;2023-05-10T15:35:10;5.50;;;3.92;;
5811;SDS011;2932;52.400;9.558;2023-05-10T15:37:36;4.00;;;3.25;;
5811;SDS011;2932;52.400;9.558;2023-05-10T15:40:01;4.80;;;2.63;;
5811;SDS011;2932;52.400;9.558;2023-05-10T15:42:28;3.17;;;2.60;;
5811;SDS011;2932;52.400;9.558;2023-05-10T15:44:55;3.65;;;2.53;;
5811;SDS011;2932;52.400;9.558;2023-05-10T15:47:21;5.13;;;2.28;;
5811;SDS011;2932;52.400;9.558;2023-05-10T15:49:46;3.80;;;2.35;;
5811;SDS011;2932;52.400;9.558;2023-05-10T15:52:11;3.28;;;2.25;;
5811;SDS011;2932;52.400;9.558;2023-05-10T15:54:37;3.67;;;1.88;;
5811;SDS011;2932;52.400;9.558;2023-05-10T15:57:02;5.13;;;2.40;;
5811;SDS011;2932;52.400;9.558;2023-05-10T15:59:27;2.75;;;2.00;;
5811;SDS011;2932;52.400;9.558;2023-05-10T16:01:53;3.55;;;1.77;;
5811;SDS011;2932;52.400;9.558;2023-05-10T16:04:18;2.13;;;1.77;;
5811;SDS011;2932;52.400;9.558;2023-05-10T16:06:44;3.28;;;1.80;;